createdAt,value
2019-01-09T00:01:10.774Z,1.60
2019-01-09T00:03:21.812Z,1.90
2019-01-09T00:05:32.619Z,1.80
2019-01-09T00:07:43.554Z,2.03
2019-01-09T00:09:54.351Z,1.70
2019-01-09T00:12:05.195Z,1.33
2019-01-09T00:14:15.980Z,1.77
2019-01-09T00:16:26.811Z,1.97
2019-01-09T00:18:37.608Z,1.60
2019-01-09T00:20:48.438Z,1.40
2019-01-09T00:22:59.228Z,1.53
2019-01-09T00:25:10.040Z,1.83
2019-01-09T00:27:20.866Z,1.60
2019-01-09T00:29:31.666Z,1.73
2019-01-09T00:31:42.502Z,1.60
2019-01-09T00:36:25.660Z,1.40
2019-01-09T00:38:36.496Z,1.30
2019-01-09T00:40:47.423Z,1.60
2019-01-09T00:42:58.347Z,1.40
2019-01-09T00:45:09.243Z,1.87
2019-01-09T00:47:20.065Z,1.20
2019-01-09T00:49:30.967Z,2.10
2019-01-09T00:51:41.864Z,1.60
2019-01-09T00:53:52.671Z,1.20
2019-01-09T00:56:03.461Z,1.60
2019-01-09T00:58:14.399Z,2.10
2019-01-09T01:00:25.204Z,1.63
2019-01-09T01:03:15.763Z,1.60
2019-01-09T01:06:06.297Z,1.90
2019-01-09T01:08:56.845Z,1.60
2019-01-09T01:11:49.298Z,1.57
2019-01-09T01:14:39.940Z,1.30
2019-01-09T01:17:32.375Z,1.80
2019-01-09T01:20:04.956Z,1.40
2019-01-09T01:22:37.548Z,1.60
2019-01-09T01:25:28.107Z,1.30
2019-01-09T01:28:20.544Z,1.67
2019-01-09T01:31:12.995Z,1.80
2019-01-09T01:34:05.452Z,1.97
2019-01-09T01:36:38.042Z,1.90
2019-01-09T01:39:28.635Z,1.70
2019-01-09T01:42:21.112Z,2.00
2019-01-09T01:45:13.602Z,2.23
2019-01-09T01:47:46.190Z,1.70
2019-01-09T01:50:18.764Z,1.70
2019-01-09T01:53:14.241Z,1.90
2019-01-09T01:56:04.783Z,1.37
2019-01-09T01:58:37.377Z,1.50
2019-01-09T02:01:29.811Z,1.50
2019-01-09T02:04:22.271Z,1.60
2019-01-09T02:06:54.866Z,1.67
2019-01-09T02:09:47.326Z,2.30
2019-01-09T02:12:39.798Z,2.03
2019-01-09T02:15:30.326Z,1.80
2019-01-09T02:18:22.802Z,2.17
2019-01-09T02:21:13.366Z,1.93
2019-01-09T02:24:05.819Z,2.40
2019-01-09T02:26:38.393Z,1.80
2019-01-09T02:29:28.969Z,1.80
2019-01-09T02:32:21.422Z,2.30
2019-01-09T02:34:32.241Z,1.93
2019-01-09T02:36:43.047Z,1.57
2019-01-09T02:38:53.870Z,1.60
2019-01-09T02:41:04.669Z,1.53
2019-01-09T02:43:15.457Z,1.80
2019-01-09T02:45:26.283Z,1.83
2019-01-09T02:47:37.066Z,1.70
2019-01-09T02:52:26.722Z,1.57
2019-01-09T02:54:37.540Z,1.90
2019-01-09T02:56:48.360Z,1.90
2019-01-09T02:58:59.270Z,2.00
2019-01-09T03:01:10.098Z,2.13
2019-01-09T03:03:20.889Z,1.57
2019-01-09T03:05:31.694Z,1.57
2019-01-09T03:07:42.529Z,2.23
2019-01-09T03:09:53.351Z,2.10
2019-01-09T03:12:04.160Z,1.83
2019-01-09T03:14:15.001Z,2.03
2019-01-09T03:16:25.807Z,1.80
2019-01-09T03:18:36.608Z,1.70
2019-01-09T03:20:47.425Z,1.80
2019-01-09T03:22:58.235Z,2.00
2019-01-09T03:25:09.059Z,2.23
2019-01-09T03:27:19.868Z,1.50
2019-01-09T03:29:30.682Z,2.20
2019-01-09T03:31:41.487Z,2.03
2019-01-09T03:33:52.298Z,1.70
2019-01-09T03:36:03.159Z,2.03
2019-01-09T03:38:13.971Z,2.30
2019-01-09T03:40:24.768Z,1.50
2019-01-09T03:42:35.682Z,1.90
2019-01-09T03:44:46.485Z,2.17
2019-01-09T03:46:57.326Z,1.97
2019-01-09T03:49:08.136Z,1.70
2019-01-09T03:51:18.970Z,1.50
2019-01-09T03:53:29.789Z,1.90
2019-01-09T03:55:40.641Z,1.47
2019-01-09T03:57:51.536Z,1.60
2019-01-09T04:00:24.140Z,1.40
2019-01-09T04:02:34.936Z,1.60
2019-01-09T04:04:45.730Z,1.60
2019-01-09T04:06:56.561Z,1.13
2019-01-09T04:09:07.354Z,1.70
2019-01-09T04:11:18.164Z,1.57
2019-01-09T04:13:28.953Z,1.60
2019-01-09T04:15:39.955Z,1.23
2019-01-09T04:17:50.770Z,1.40
2019-01-09T04:20:01.690Z,1.50
2019-01-09T04:22:12.475Z,1.37
2019-01-09T04:24:23.280Z,1.60
2019-01-09T04:26:34.101Z,1.57
2019-01-09T04:28:44.906Z,1.43
2019-01-09T04:30:55.716Z,1.30
2019-01-09T04:33:06.526Z,1.63
2019-01-09T04:35:17.314Z,1.90
2019-01-09T04:37:28.117Z,1.97
2019-01-09T04:39:38.916Z,1.80
2019-01-09T04:41:49.728Z,1.80
2019-01-09T04:44:00.525Z,1.97
2019-01-09T04:46:11.317Z,2.10
2019-01-09T04:48:22.131Z,2.23
2019-01-09T04:50:32.933Z,1.90
2019-01-09T04:52:43.755Z,2.10
2019-01-09T04:54:54.545Z,1.77
2019-01-09T04:57:05.374Z,2.10
2019-01-09T04:59:16.193Z,1.83
2019-01-09T05:01:26.982Z,2.10
2019-01-09T05:03:37.908Z,1.90
2019-01-09T05:05:48.712Z,1.60
2019-01-09T05:07:59.518Z,2.00
2019-01-09T05:10:10.318Z,1.70
2019-01-09T05:12:21.174Z,1.67
2019-01-09T05:14:31.961Z,1.80
2019-01-09T05:16:42.757Z,1.60
2019-01-09T05:18:53.577Z,1.30
2019-01-09T05:21:04.394Z,1.83
2019-01-09T05:23:15.185Z,2.03
2019-01-09T05:25:25.968Z,1.53
2019-01-09T05:27:36.773Z,1.70
2019-01-09T05:29:47.601Z,1.70
2019-01-09T05:31:58.438Z,1.93
2019-01-09T05:34:09.253Z,1.80
2019-01-09T05:36:20.077Z,1.60
2019-01-09T05:38:30.904Z,1.73
2019-01-09T05:40:41.714Z,1.80
2019-01-09T05:42:52.520Z,1.73
2019-01-09T05:45:03.341Z,1.40
2019-01-09T05:47:14.141Z,2.07
2019-01-09T05:49:24.976Z,2.40
2019-01-09T05:51:35.776Z,1.60
2019-01-09T05:53:46.566Z,1.47
2019-01-09T05:55:57.381Z,2.00
2019-01-09T05:58:08.179Z,1.40
2019-01-09T06:00:19.010Z,1.87
2019-01-09T06:02:29.825Z,1.87
2019-01-09T06:04:40.641Z,1.73
2019-01-09T06:06:51.448Z,1.90
2019-01-09T06:09:43.922Z,1.77
2019-01-09T06:11:54.742Z,1.40
2019-01-09T06:14:05.534Z,1.60
2019-01-09T06:16:16.335Z,1.67
2019-01-09T06:18:27.144Z,2.20
2019-01-09T06:20:37.947Z,1.67
2019-01-09T06:22:48.900Z,1.43
2019-01-09T06:24:59.701Z,1.27
2019-01-09T06:27:10.522Z,1.80
2019-01-09T06:29:21.370Z,1.20
2019-01-09T06:31:32.176Z,1.70
2019-01-09T06:33:42.975Z,1.40
2019-01-09T06:35:53.769Z,1.17
2019-01-09T06:38:04.606Z,1.60
2019-01-09T06:40:15.410Z,1.27
2019-01-09T06:42:26.240Z,1.60
2019-01-09T06:44:37.030Z,1.60
2019-01-09T06:46:47.848Z,1.83
2019-01-09T06:48:58.640Z,1.57
2019-01-09T06:51:09.465Z,1.50
2019-01-09T06:53:20.308Z,1.73
2019-01-09T06:55:31.135Z,1.20
2019-01-09T06:57:41.917Z,1.30
2019-01-09T06:59:52.721Z,1.33
2019-01-09T07:02:03.556Z,1.00
2019-01-09T07:04:14.352Z,1.30
2019-01-09T07:06:25.135Z,0.63
2019-01-09T07:08:35.968Z,1.03
2019-01-09T07:10:46.755Z,1.23
2019-01-09T07:12:57.585Z,1.27
2019-01-09T07:15:11.748Z,1.60
2019-01-09T07:17:21.104Z,0.93
2019-01-09T07:19:31.898Z,1.10
2019-01-09T07:21:45.600Z,1.27
2019-01-09T07:23:55.408Z,1.40
2019-01-09T07:26:06.234Z,1.50
2019-01-09T07:28:36.937Z,1.37
2019-01-09T07:30:47.784Z,2.30
2019-01-09T07:32:58.578Z,1.60
2019-01-09T07:35:09.422Z,1.43
2019-01-09T07:37:20.210Z,1.30
2019-01-09T07:39:31.031Z,1.43
2019-01-09T07:41:41.829Z,1.20
2019-01-09T07:43:52.666Z,1.53
2019-01-09T07:46:03.543Z,1.57
2019-01-09T07:48:14.264Z,1.40
2019-01-09T07:50:25.077Z,1.43
2019-01-09T07:52:35.879Z,2.07
2019-01-09T07:54:46.696Z,1.73
2019-01-09T07:56:57.491Z,1.47
2019-01-09T07:59:08.325Z,1.43
2019-01-09T08:01:19.143Z,1.47
2019-01-09T08:03:29.945Z,1.33
2019-01-09T08:05:40.758Z,1.30
2019-01-09T08:07:54.185Z,1.67
2019-01-09T08:10:45.944Z,1.27
2019-01-09T08:12:56.770Z,1.50
2019-01-09T08:15:07.750Z,1.77
2019-01-09T08:17:19.095Z,2.20
2019-01-09T08:19:29.913Z,1.73
2019-01-09T08:21:40.732Z,1.40
2019-01-09T08:23:51.539Z,1.30
2019-01-09T08:26:02.477Z,1.40
2019-01-09T08:28:13.267Z,1.83
2019-01-09T08:30:24.101Z,1.10
2019-01-09T08:32:35.018Z,1.10
2019-01-09T08:34:45.802Z,1.00
2019-01-09T08:36:56.628Z,1.40
2019-01-09T08:39:07.442Z,1.00
2019-01-09T08:41:18.388Z,1.40
2019-01-09T08:43:29.232Z,1.60
2019-01-09T08:45:40.043Z,1.40
2019-01-09T08:47:50.974Z,1.83
2019-01-09T08:50:23.533Z,2.10
2019-01-09T08:52:34.345Z,2.10
2019-01-09T08:54:45.140Z,1.90
2019-01-09T08:56:55.967Z,2.00
2019-01-09T08:59:06.755Z,2.03
2019-01-09T09:01:17.546Z,1.93
2019-01-09T09:03:28.358Z,1.90
2019-01-09T09:05:39.154Z,2.07
2019-01-09T09:08:31.638Z,1.83
2019-01-09T09:10:42.422Z,2.80
2019-01-09T09:12:53.253Z,3.00
2019-01-09T09:15:45.695Z,1.90
2019-01-09T09:17:56.606Z,1.70
2019-01-09T09:20:49.042Z,2.20
2019-01-09T09:22:59.850Z,1.73
2019-01-09T09:25:10.657Z,1.90
2019-01-09T09:27:21.545Z,1.67
2019-01-09T09:29:32.389Z,2.20
2019-01-09T09:31:43.179Z,2.20
2019-01-09T09:33:54.011Z,2.30
2019-01-09T09:36:12.104Z,2.00
2019-01-09T09:38:22.938Z,1.90
2019-01-09T09:40:33.744Z,2.13
2019-01-09T09:42:44.572Z,1.60
2019-01-09T09:44:55.489Z,1.87
2019-01-09T09:47:06.268Z,1.73
2019-01-09T09:49:17.120Z,1.63
2019-01-09T09:51:27.907Z,2.10
2019-01-09T09:53:38.729Z,1.60
2019-01-09T09:55:49.550Z,1.50
2019-01-09T09:58:05.604Z,2.00
2019-01-09T10:00:54.708Z,2.00
2019-01-09T10:03:05.495Z,2.00
2019-01-09T10:05:16.321Z,1.60
2019-01-09T10:07:27.110Z,1.93
2019-01-09T10:09:37.913Z,1.60
2019-01-09T10:11:48.735Z,1.57
2019-01-09T10:13:59.567Z,1.57
2019-01-09T10:16:10.381Z,1.33
2019-01-09T10:18:21.174Z,1.40
2019-01-09T10:20:31.993Z,1.60
2019-01-09T10:23:04.696Z,1.80
2019-01-09T10:25:15.502Z,2.20
2019-01-09T10:27:26.289Z,1.80
2019-01-09T10:29:37.110Z,1.57
2019-01-09T10:31:47.908Z,1.43
2019-01-09T10:33:58.713Z,1.90
2019-01-09T10:36:09.537Z,1.70
2019-01-09T10:38:20.434Z,1.90
2019-01-09T10:40:36.067Z,1.90
2019-01-09T10:42:44.233Z,1.80
2019-01-09T10:44:55.083Z,1.73
2019-01-09T10:47:05.913Z,1.70
2019-01-09T10:49:16.712Z,1.67
2019-01-09T10:51:27.627Z,1.40
2019-01-09T10:53:38.426Z,2.17
2019-01-09T10:55:49.244Z,2.33
2019-01-09T10:58:00.170Z,3.53
2019-01-09T11:00:52.618Z,2.57
2019-01-09T11:03:03.654Z,2.30
2019-01-09T11:05:14.846Z,3.40
2019-01-09T11:07:25.834Z,2.73
2019-01-09T11:09:36.663Z,2.47
2019-01-09T11:11:47.482Z,3.00
2019-01-09T11:13:58.279Z,4.20
2019-01-09T11:16:09.165Z,3.10
2019-01-09T11:18:20.009Z,2.80
2019-01-09T11:20:30.828Z,2.27
2019-01-09T11:22:41.676Z,3.30
2019-01-09T11:24:52.483Z,2.97
2019-01-09T11:27:03.523Z,3.33
2019-01-09T11:29:14.327Z,2.50
2019-01-09T11:31:25.138Z,2.53
2019-01-09T11:33:35.967Z,2.33
2019-01-09T11:35:46.755Z,3.30
2019-01-09T11:37:57.571Z,2.50
2019-01-09T11:40:50.029Z,3.57
2019-01-09T11:43:00.953Z,3.30
2019-01-09T11:45:53.408Z,2.27
2019-01-09T11:48:04.228Z,2.90
2019-01-09T11:50:56.694Z,3.77
2019-01-09T11:53:07.502Z,2.80
2019-01-09T11:55:18.334Z,2.77
2019-01-09T11:57:29.287Z,3.00
2019-01-09T11:59:40.113Z,4.60
2019-01-09T12:01:50.919Z,4.70
2019-01-09T12:04:01.752Z,2.53
2019-01-09T12:06:12.543Z,2.10
2019-01-09T12:08:23.379Z,1.53
2019-01-09T12:10:34.293Z,1.83
2019-01-09T12:12:45.094Z,1.50
2019-01-09T12:14:55.923Z,1.20
2019-01-09T12:17:06.728Z,2.23
2019-01-09T12:19:17.562Z,2.20
2019-01-09T12:21:28.366Z,2.13
2019-01-09T12:23:39.157Z,1.70
2019-01-09T12:25:49.991Z,1.60
2019-01-09T12:28:00.791Z,1.70
2019-01-09T12:30:31.528Z,1.63
2019-01-09T12:32:42.336Z,1.60
2019-01-09T12:34:53.168Z,1.50
2019-01-09T12:37:03.982Z,1.60
2019-01-09T12:39:14.785Z,2.00
2019-01-09T12:41:25.708Z,2.40
2019-01-09T12:43:36.494Z,2.80
2019-01-09T12:45:47.333Z,2.03
2019-01-09T12:47:58.137Z,2.27
2019-01-09T12:50:50.611Z,3.10
2019-01-09T12:53:01.400Z,2.80
2019-01-09T12:55:12.248Z,2.33
2019-01-09T12:57:23.085Z,2.40
2019-01-09T12:59:33.907Z,2.40
2019-01-09T13:01:44.725Z,2.23
2019-01-09T13:03:55.537Z,2.80
2019-01-09T13:06:06.452Z,3.80
2019-01-09T13:08:17.261Z,3.80
2019-01-09T13:10:28.059Z,2.87
2019-01-09T13:13:20.534Z,2.23
2019-01-09T13:15:31.315Z,2.33
2019-01-09T13:17:42.150Z,1.90
2019-01-09T13:19:52.958Z,2.23
2019-01-09T13:22:03.776Z,3.20
2019-01-09T13:24:14.583Z,3.10
2019-01-09T13:26:25.391Z,1.97
2019-01-09T13:28:36.237Z,2.03
2019-01-09T13:30:47.066Z,2.13
2019-01-09T13:32:57.922Z,2.10
2019-01-09T13:35:08.714Z,1.73
2019-01-09T13:37:19.710Z,2.77
2019-01-09T13:39:31.102Z,2.10
2019-01-09T13:41:43.235Z,2.27
2019-01-09T13:43:54.095Z,2.30
2019-01-09T13:46:04.897Z,2.60
2019-01-09T13:48:15.908Z,2.20
2019-01-09T13:50:26.691Z,2.53
2019-01-09T13:52:37.597Z,2.77
2019-01-09T13:54:48.457Z,1.87
2019-01-09T13:56:59.243Z,2.00
2019-01-09T13:59:10.074Z,2.33
2019-01-09T14:01:20.896Z,2.30
2019-01-09T14:03:31.718Z,2.73
2019-01-09T14:05:42.537Z,3.03
2019-01-09T14:07:53.360Z,1.90
2019-01-09T14:10:45.822Z,2.20
2019-01-09T14:12:56.646Z,1.80
2019-01-09T14:15:49.085Z,2.10
2019-01-09T14:17:59.983Z,1.80
2019-01-09T14:20:52.470Z,1.70
2019-01-09T14:23:03.408Z,1.90
2019-01-09T14:25:55.877Z,2.23
2019-01-09T14:28:06.669Z,2.27
2019-01-09T14:30:59.144Z,1.60
2019-01-09T14:33:09.969Z,1.83
2019-01-09T14:35:20.881Z,1.90
2019-01-09T14:37:31.712Z,2.10
2019-01-09T14:39:48.032Z,1.60
2019-01-09T14:41:55.256Z,1.57
2019-01-09T14:44:06.074Z,1.70
2019-01-09T14:46:16.887Z,2.57
2019-01-09T14:48:27.693Z,2.07
2019-01-09T14:50:38.530Z,1.40
2019-01-09T14:52:49.321Z,1.60
2019-01-09T14:55:00.209Z,0.90
2019-01-09T14:57:11.069Z,1.23
2019-01-09T14:59:21.867Z,1.10
2019-01-09T15:01:32.699Z,1.00
2019-01-09T15:03:43.535Z,1.17
2019-01-09T15:05:54.329Z,1.30
2019-01-09T15:08:05.118Z,1.60
2019-01-09T15:10:57.573Z,1.33
2019-01-09T15:13:08.376Z,1.50
2019-01-09T15:15:19.301Z,1.30
2019-01-09T15:17:30.134Z,1.13
2019-01-09T15:19:40.931Z,1.33
2019-01-09T15:21:51.758Z,1.70
2019-01-09T15:24:08.393Z,1.00
2019-01-09T15:26:15.492Z,1.10
2019-01-09T15:28:26.301Z,1.90
2019-01-09T15:30:37.212Z,2.00
2019-01-09T15:32:48.042Z,1.40
2019-01-09T15:34:58.849Z,1.40
2019-01-09T15:37:09.676Z,1.83
2019-01-09T15:39:20.503Z,3.40
2019-01-09T15:41:31.338Z,3.17
2019-01-09T15:43:42.159Z,2.50
2019-01-09T15:45:52.980Z,2.80
2019-01-09T15:48:03.908Z,2.40
2019-01-09T15:50:34.590Z,1.83
2019-01-09T15:52:45.439Z,1.70
2019-01-09T15:54:56.273Z,2.40
2019-01-09T15:57:07.110Z,1.90
2019-01-09T15:59:17.946Z,1.63
2019-01-09T16:01:28.743Z,1.40
2019-01-09T16:03:39.548Z,1.80
2019-01-09T16:05:50.365Z,1.50
2019-01-09T16:08:01.206Z,1.97
2019-01-09T16:10:53.671Z,3.30
2019-01-09T16:13:04.518Z,2.27
2019-01-09T16:15:56.981Z,2.93
2019-01-09T16:18:07.945Z,2.10
2019-01-09T16:21:00.377Z,2.33
2019-01-09T16:23:11.317Z,2.57
2019-01-09T16:25:22.113Z,3.37
2019-01-09T16:27:32.921Z,2.30
2019-01-09T16:29:43.758Z,2.90
2019-01-09T16:31:54.612Z,2.63
2019-01-09T16:34:05.426Z,2.40
2019-01-09T16:36:16.241Z,2.40
2019-01-09T16:38:27.035Z,2.10
2019-01-09T16:40:37.857Z,2.33
2019-01-09T16:42:48.665Z,2.20
2019-01-09T16:44:59.496Z,2.17
2019-01-09T16:47:10.348Z,2.57
2019-01-09T16:49:27.892Z,2.73
2019-01-09T16:51:33.843Z,2.80
2019-01-09T16:53:44.667Z,5.23
2019-01-09T16:55:55.498Z,4.30
2019-01-09T16:58:06.386Z,3.97
2019-01-09T17:00:38.091Z,3.30
2019-01-09T17:02:49.009Z,3.27
2019-01-09T17:04:59.820Z,3.43
2019-01-09T17:07:10.742Z,3.10
2019-01-09T17:09:21.570Z,3.10
2019-01-09T17:11:32.406Z,3.00
2019-01-09T17:13:43.213Z,3.00
2019-01-09T17:15:54.164Z,3.00
2019-01-09T17:18:05.071Z,2.50
2019-01-09T17:20:35.739Z,3.23
2019-01-09T17:22:46.656Z,2.60
2019-01-09T17:24:57.602Z,2.90
2019-01-09T17:27:08.429Z,2.50
2019-01-09T17:29:19.236Z,3.10
2019-01-09T17:31:30.082Z,2.80
2019-01-09T17:33:40.915Z,3.37
2019-01-09T17:35:51.954Z,3.60
2019-01-09T17:38:04.682Z,3.73
2019-01-09T17:40:57.479Z,5.43
2019-01-09T17:43:08.330Z,11.23
2019-01-09T17:45:19.353Z,7.73
2019-01-09T17:47:30.169Z,7.73
2019-01-09T17:49:41.076Z,7.07
2019-01-09T17:51:51.904Z,5.33
2019-01-09T17:54:03.044Z,4.07
2019-01-09T17:56:13.999Z,4.37
2019-01-09T17:58:24.876Z,4.37
2019-01-09T18:01:17.321Z,3.83
2019-01-09T18:03:28.156Z,3.17
2019-01-09T18:05:38.966Z,3.33
2019-01-09T18:07:51.981Z,3.40
2019-01-09T18:10:50.018Z,3.07
2019-01-09T18:12:56.997Z,2.93
2019-01-09T18:15:31.498Z,2.80
2019-01-09T18:17:42.315Z,2.97
2019-01-09T18:19:53.145Z,3.23
2019-01-09T18:22:03.945Z,3.27
2019-01-09T18:24:14.794Z,4.80
2019-01-09T18:26:25.697Z,3.17
2019-01-09T18:28:36.537Z,2.73
2019-01-09T18:31:30.914Z,3.33
2019-01-09T18:34:23.385Z,4.10
2019-01-09T18:37:15.817Z,4.33
2019-01-09T18:40:08.289Z,3.70
2019-01-09T18:42:58.882Z,4.30
2019-01-09T18:45:51.364Z,3.23
2019-01-09T18:48:43.821Z,3.40
2019-01-09T18:51:36.392Z,3.00
2019-01-09T18:53:47.303Z,3.23
2019-01-09T18:55:58.169Z,2.80
2019-01-09T18:58:08.972Z,3.10
2019-01-09T19:01:01.481Z,2.93
2019-01-09T19:03:12.275Z,3.30
2019-01-09T19:05:23.210Z,3.20
2019-01-09T19:07:34.202Z,3.43
2019-01-09T19:09:45.113Z,3.63
2019-01-09T19:11:55.968Z,3.70
2019-01-09T19:14:06.867Z,3.57
2019-01-09T19:16:17.915Z,2.60
2019-01-09T19:18:28.943Z,3.57
2019-01-09T19:20:39.869Z,3.33
2019-01-09T19:22:50.726Z,3.67
2019-01-09T19:27:53.799Z,3.43
2019-01-09T19:30:46.235Z,3.87
2019-01-09T19:32:57.069Z,3.83
2019-01-09T19:35:49.540Z,4.23
2019-01-09T19:38:00.455Z,5.40
2019-01-09T19:40:11.473Z,5.00
2019-01-09T19:42:22.363Z,4.53
2019-01-09T19:44:33.228Z,5.03
2019-01-09T19:46:44.018Z,5.30
2019-01-09T19:48:54.949Z,5.73
2019-01-09T19:51:47.411Z,6.07
2019-01-09T19:53:58.341Z,5.50
2019-01-09T19:56:09.419Z,6.37
2019-01-09T19:58:20.285Z,5.83
2019-01-09T20:00:31.222Z,6.50
2019-01-09T20:02:42.241Z,6.40
2019-01-09T20:04:53.065Z,6.67
2019-01-09T20:07:03.995Z,6.50
2019-01-09T20:09:14.938Z,6.43
2019-01-09T20:11:26.461Z,7.17
2019-01-09T20:13:38.632Z,7.70
2019-01-09T20:15:49.575Z,6.90
2019-01-09T20:18:00.619Z,6.43
2019-01-09T20:20:53.108Z,6.60
2019-01-09T20:23:03.998Z,6.93
2019-01-09T20:25:14.933Z,5.90
2019-01-09T20:27:25.757Z,7.37
2019-01-09T20:29:36.673Z,6.67
2019-01-09T20:31:47.505Z,7.00
2019-01-09T20:33:58.471Z,6.73
2019-01-09T20:36:09.346Z,7.07
2019-01-09T20:38:20.331Z,6.00
2019-01-09T20:40:31.232Z,6.23
2019-01-09T20:42:42.140Z,6.33
2019-01-09T20:44:53.148Z,5.67
2019-01-09T20:47:04.050Z,5.30
2019-01-09T20:49:14.833Z,5.37
2019-01-09T20:51:25.751Z,6.07
2019-01-09T20:53:36.532Z,5.10
2019-01-09T20:55:47.482Z,5.00
2019-01-09T20:57:58.442Z,5.60
2019-01-09T21:00:29.182Z,4.97
2019-01-09T21:02:40.085Z,5.07
2019-01-09T21:04:51.038Z,4.97
2019-01-09T21:09:20.896Z,4.37
2019-01-09T21:11:31.773Z,5.13
2019-01-09T21:13:42.520Z,4.47
2019-01-09T21:15:53.498Z,3.60
2019-01-09T21:18:45.925Z,4.33
2019-01-09T21:20:56.832Z,4.17
2019-01-09T21:23:07.823Z,3.60
2019-01-09T21:25:18.870Z,3.13
2019-01-09T21:27:29.679Z,3.20
2019-01-09T21:29:40.488Z,3.27
2019-01-09T21:31:51.322Z,2.87
2019-01-09T21:34:02.236Z,3.10
2019-01-09T21:36:13.134Z,3.33
2019-01-09T21:38:23.938Z,3.30
2019-01-09T21:40:34.758Z,3.20
2019-01-09T21:42:45.611Z,2.67
2019-01-09T21:44:56.445Z,2.60
2019-01-09T21:47:07.260Z,2.13
2019-01-09T21:49:18.060Z,2.20
2019-01-09T21:51:28.856Z,2.80
2019-01-09T21:53:39.788Z,2.60
2019-01-09T21:55:50.590Z,2.50
2019-01-09T21:58:01.521Z,2.67
2019-01-09T22:00:53.971Z,3.30
2019-01-09T22:03:04.984Z,2.00
2019-01-09T22:05:57.441Z,2.77
2019-01-09T22:08:08.381Z,2.37
2019-01-09T22:10:39.035Z,2.00
2019-01-09T22:12:49.825Z,2.60
2019-01-09T22:15:00.647Z,2.60
2019-01-09T22:17:11.541Z,2.73
2019-01-09T22:19:22.472Z,2.80
2019-01-09T22:21:33.265Z,2.53
2019-01-09T22:23:44.075Z,3.53
2019-01-09T22:25:54.874Z,3.50
2019-01-09T22:30:38.336Z,3.33
2019-01-09T22:32:49.260Z,3.63
2019-01-09T22:35:00.223Z,3.10
2019-01-09T22:37:11.016Z,3.77
2019-01-09T22:39:21.868Z,4.00
2019-01-09T22:41:32.689Z,4.13
2019-01-09T22:43:43.525Z,3.87
2019-01-09T22:45:54.338Z,3.23
2019-01-09T22:48:05.134Z,3.67
2019-01-09T22:50:57.616Z,3.80
2019-01-09T22:53:08.443Z,4.00
2019-01-09T22:55:19.255Z,4.13
2019-01-09T22:57:30.038Z,4.17
2019-01-09T22:59:40.854Z,4.60
2019-01-09T23:01:51.670Z,4.10
2019-01-09T23:04:44.136Z,4.33
2019-01-09T23:06:55.062Z,4.17
2019-01-09T23:09:47.526Z,4.50
2019-01-09T23:11:58.552Z,4.90
2019-01-09T23:14:09.348Z,4.50
2019-01-09T23:16:20.137Z,4.73
2019-01-09T23:18:31.091Z,5.30
2019-01-09T23:20:41.996Z,4.87
2019-01-09T23:22:52.815Z,5.47
2019-01-09T23:25:45.274Z,5.53
2019-01-09T23:27:56.090Z,5.23
2019-01-09T23:30:48.542Z,5.50
2019-01-09T23:32:59.398Z,5.70
2019-01-09T23:35:51.851Z,5.80
2019-01-09T23:38:02.706Z,5.23
2019-01-09T23:40:55.125Z,4.40
2019-01-09T23:43:05.990Z,5.63
2019-01-09T23:45:16.774Z,5.77
2019-01-09T23:47:27.584Z,6.53
2019-01-09T23:49:38.403Z,5.73
2019-01-09T23:51:49.199Z,6.03
2019-01-09T23:54:00.014Z,5.70
2019-01-09T23:56:10.845Z,5.57
2019-01-09T23:58:21.682Z,6.03
